Terminal Aerodrome Forecast
Issued by NWS

Home | Current Version | Previous Version | Text Only | Print | Product List | Glossary On
Versions: 1 2 3 4 5 6 7 8 9 10 11 12 13 14 15 16 17 18 19 20 21 22 23 24 25 26
000
FTUS42 KMFL 301136
TAFFXE
TAF
KFXE 301136Z 3012/0112 VRB03KT P6SM VCSH SCT025 BKN250
     FM301700 13007KT P6SM VCTS SCT025CB BKN060 BKN250
     FM010100 VRB03KT P6SM FEW035 SCT080 BKN250=

USA.gov is the U.S. government's official web portal to all federal, state and local government web resources and services.